Time;durP1;ratioP1;P1;durP2;ratioP2;P2;SDS_P1;SDS_P2;PMS_P1;PMS_P2;Temp;Humidity;BMP_temperature;BMP_pressure;BME280_temperature;BME280_humidity;BME280_pressure;Samples;Min_cycle;Max_cycle;Signal;HPM_P1;HPM_P2
2022/05/20 00:00:27;;;;;;;3.28;2.38;;;;;;;;;;5056189;28;20048;-83
2022/05/20 00:02:53;;;;;;;4.30;1.98;;;;;;;;;;5056032;28;20029;-83
2022/05/20 00:05:19;;;;;;;4.10;2.45;;;;;;;;;;5054266;28;20453;-82
2022/05/20 00:07:44;;;;;;;4.40;2.28;;;;;;;;;;5056194;28;20021;-84
2022/05/20 00:10:12;;;;;;;4.95;2.10;;;;;;;;;;5056063;28;20395;-82
2022/05/20 00:12:38;;;;;;;2.65;2.08;;;;;;;;;;5055783;28;20085;-82
2022/05/20 00:15:07;;;;;;;4.63;2.55;;;;;;;;;;5054037;28;20104;-83
2022/05/20 00:17:32;;;;;;;3.47;2.20;;;;;;;;;;5055575;28;20021;-86
2022/05/20 00:19:58;;;;;;;4.80;2.33;;;;;;;;;;5055019;28;20468;-85
2022/05/20 00:22:23;;;;;;;15.57;4.75;;;;;;;;;;5044382;28;20039;-84
2022/05/20 00:27:33;;;;;;;2.90;1.80;;;;;;;;;;5056628;28;20039;-86
2022/05/20 00:29:58;;;;;;;2.22;1.50;;;;;;;;;;5055852;28;20029;-87
2022/05/20 00:32:24;;;;;;;4.35;1.88;;;;;;;;;;5056594;28;20013;-84
2022/05/20 00:34:49;;;;;;;7.88;2.50;;;;;;;;;;5056291;28;20036;-84
2022/05/20 00:37:15;;;;;;;3.30;1.73;;;;;;;;;;5053872;28;20111;-82
2022/05/20 00:39:40;;;;;;;2.15;1.70;;;;;;;;;;5054360;28;20033;-84
2022/05/20 00:42:15;;;;;;;1.98;1.83;;;;;;;;;;5055084;28;20041;-85
2022/05/20 00:44:41;;;;;;;4.05;1.88;;;;;;;;;;5055656;28;20533;-85
2022/05/20 00:47:08;;;;;;;4.28;1.75;;;;;;;;;;5055123;28;20028;-85
2022/05/20 00:49:35;;;;;;;2.35;1.60;;;;;;;;;;5057138;28;20029;-84
2022/05/20 00:52:04;;;;;;;6.35;4.57;;;;;;;;;;5055508;28;20123;-85
2022/05/20 00:54:34;;;;;;;3.28;1.77;;;;;;;;;;5038466;28;20132;-84
2022/05/20 00:57:03;;;;;;;1.98;1.67;;;;;;;;;;5019272;28;20163;-85
2022/05/20 00:59:33;;;;;;;5.63;1.60;;;;;;;;;;5037690;28;20576;-83
2022/05/20 01:02:04;;;;;;;3.72;1.20;;;;;;;;;;5036639;28;20110;-83
2022/05/20 01:04:30;;;;;;;1.92;1.60;;;;;;;;;;5035796;28;20100;-85
2022/05/20 01:06:55;;;;;;;1.48;1.38;;;;;;;;;;5036124;28;20033;-85
2022/05/20 01:09:21;;;;;;;2.45;1.80;;;;;;;;;;5036060;28;20084;-84
2022/05/20 01:11:47;;;;;;;2.03;1.42;;;;;;;;;;5047611;28;20025;-84
2022/05/20 01:14:19;;;;;;;3.53;1.60;;;;;;;;;;5037664;28;20381;-83
2022/05/20 01:16:45;;;;;;;5.20;1.60;;;;;;;;;;5055668;28;20090;-84
2022/05/20 01:19:26;;;;;;;4.53;1.65;;;;;;;;;;5054123;28;20483;-84
2022/05/20 01:21:51;;;;;;;4.38;1.30;;;;;;;;;;5056409;28;20035;-83
2022/05/20 01:24:17;;;;;;;1.92;1.60;;;;;;;;;;5055505;28;20099;-85
2022/05/20 01:26:42;;;;;;;1.45;1.35;;;;;;;;;;5055785;28;20031;-84
2022/05/20 01:29:08;;;;;;;2.95;1.40;;;;;;;;;;5055629;28;20029;-84
2022/05/20 01:31:33;;;;;;;4.47;1.67;;;;;;;;;;5055444;28;20055;-84
2022/05/20 01:33:59;;;;;;;3.33;1.55;;;;;;;;;;5053310;28;20055;-85
2022/05/20 01:36:25;;;;;;;2.42;1.55;;;;;;;;;;5053357;28;20032;-84
2022/05/20 01:38:53;;;;;;;4.30;2.50;;;;;;;;;;5070037;28;20025;-84
2022/05/20 01:41:30;;;;;;;2.70;2.50;;;;;;;;;;5056225;28;20029;-83
2022/05/20 01:44:18;;;;;;;3.50;2.10;;;;;;;;;;5076508;28;20115;-83
2022/05/20 01:46:49;;;;;;;2.53;1.67;;;;;;;;;;5074863;28;20468;-82
2022/05/20 01:49:24;;;;;;;3.53;1.80;;;;;;;;;;5074892;28;20035;-85
2022/05/20 01:52:00;;;;;;;8.48;1.90;;;;;;;;;;5075227;28;20376;-84
2022/05/20 01:54:35;;;;;;;2.72;1.92;;;;;;;;;;5075257;28;20413;-84
2022/05/20 01:57:12;;;;;;;1.45;1.35;;;;;;;;;;5053332;28;20028;-84
2022/05/20 01:59:44;;;;;;;1.75;1.63;;;;;;;;;;5054683;28;20033;-83
2022/05/20 02:02:32;;;;;;;11.50;1.60;;;;;;;;;;5054801;28;20021;-84
2022/05/20 02:05:14;;;;;;;2.58;1.65;;;;;;;;;;5054969;28;20477;-82
2022/05/20 02:08:17;;;;;;;3.00;1.80;;;;;;;;;;5056855;28;20500;-84
2022/05/20 02:11:09;;;;;;;4.57;1.60;;;;;;;;;;5057330;28;20503;-85
2022/05/20 02:13:41;;;;;;;4.72;1.88;;;;;;;;;;5052156;28;20059;-84
2022/05/20 02:16:12;;;;;;;4.25;2.20;;;;;;;;;;5055456;28;20033;-84
2022/05/20 02:18:58;;;;;;;5.82;3.10;;;;;;;;;;5052819;28;20060;-83
2022/05/20 02:21:27;;;;;;;2.03;1.80;;;;;;;;;;5053132;28;20036;-82
2022/05/20 02:23:59;;;;;;;2.30;1.45;;;;;;;;;;5056419;28;20078;-85
2022/05/20 02:26:30;;;;;;;2.28;1.50;;;;;;;;;;5069019;28;20504;-83
2022/05/20 02:29:02;;;;;;;2.97;1.85;;;;;;;;;;5053852;28;20067;-83
2022/05/20 02:31:41;;;;;;;2.88;1.73;;;;;;;;;;5052051;28;20135;-85
2022/05/20 02:34:07;;;;;;;6.50;1.88;;;;;;;;;;5069564;28;20481;-83
2022/05/20 02:36:33;;;;;;;4.70;1.40;;;;;;;;;;5069030;28;20056;-83
2022/05/20 02:38:59;;;;;;;4.30;1.80;;;;;;;;;;5053587;28;20029;-84
2022/05/20 02:41:25;;;;;;;1.95;1.77;;;;;;;;;;5059249;28;20032;-83
2022/05/20 02:43:51;;;;;;;2.10;1.58;;;;;;;;;;5055338;28;20025;-84
2022/05/20 02:46:16;;;;;;;2.30;1.58;;;;;;;;;;5073251;28;20472;-83
2022/05/20 02:48:42;;;;;;;4.25;1.70;;;;;;;;;;5073555;28;20035;-84
2022/05/20 02:51:07;;;;;;;2.20;1.40;;;;;;;;;;5073907;28;20019;-83
2022/05/20 02:53:33;;;;;;;8.13;2.00;;;;;;;;;;5071978;28;20059;-83
2022/05/20 02:56:00;;;;;;;4.18;1.90;;;;;;;;;;5055272;28;20060;-81
2022/05/20 03:04:11;;;;;;;6.65;2.00;;;;;;;;;;5042166;28;20038;-84
2022/05/20 03:06:40;;;;;;;4.60;2.00;;;;;;;;;;5054955;28;20400;-84
2022/05/20 03:09:07;;;;;;;4.63;1.90;;;;;;;;;;5073227;28;20039;-84
2022/05/20 03:11:34;;;;;;;2.65;1.83;;;;;;;;;;5054803;28;20488;-84
2022/05/20 03:14:04;;;;;;;3.80;1.63;;;;;;;;;;5072550;28;20032;-84
2022/05/20 03:16:33;;;;;;;39.10;6.68;;;;;;;;;;5073290;28;20806;-83
2022/05/20 03:19:01;;;;;;;4.85;2.05;;;;;;;;;;5073019;28;20464;-83
2022/05/20 03:21:27;;;;;;;4.38;2.05;;;;;;;;;;5067074;28;20032;-83
2022/05/20 03:23:53;;;;;;;7.40;2.30;;;;;;;;;;5052316;28;20032;-84
2022/05/20 03:26:19;;;;;;;1.80;1.70;;;;;;;;;;5051310;28;20078;-83
2022/05/20 03:28:45;;;;;;;4.57;2.78;;;;;;;;;;5052302;28;20546;-83
2022/05/20 03:31:12;;;;;;;3.25;2.47;;;;;;;;;;5068637;28;20036;-84
2022/05/20 03:33:38;;;;;;;2.83;1.75;;;;;;;;;;5052856;28;20365;-83
2022/05/20 03:36:05;;;;;;;3.30;2.10;;;;;;;;;;5068522;28;20158;-83
2022/05/20 03:38:31;;;;;;;7.25;2.10;;;;;;;;;;5068103;28;20040;-82
2022/05/20 03:40:56;;;;;;;7.25;2.10;;;;;;;;;;5069228;28;20036;-84
2022/05/20 03:43:23;;;;;;;6.28;2.25;;;;;;;;;;5053672;28;20520;-84
2022/05/20 03:45:48;;;;;;;8.10;2.03;;;;;;;;;;5051946;28;20476;-82
2022/05/20 03:48:14;;;;;;;1.85;1.60;;;;;;;;;;5051965;28;20048;-83
2022/05/20 03:50:40;;;;;;;3.30;1.83;;;;;;;;;;5067882;28;20037;-84
2022/05/20 03:53:05;;;;;;;3.28;2.97;;;;;;;;;;5051076;28;20037;-83
2022/05/20 03:55:31;;;;;;;3.35;2.03;;;;;;;;;;5068014;28;20352;-84
2022/05/20 03:57:56;;;;;;;4.28;2.35;;;;;;;;;;5059700;28;20059;-84
2022/05/20 04:00:22;;;;;;;6.80;1.88;;;;;;;;;;5034059;28;20083;-83
2022/05/20 04:02:47;;;;;;;3.40;2.22;;;;;;;;;;5050789;28;20032;-84
2022/05/20 04:05:13;;;;;;;4.07;2.40;;;;;;;;;;5052080;28;20029;-83
2022/05/20 04:07:40;;;;;;;4.72;1.98;;;;;;;;;;5050616;28;20075;-84
2022/05/20 04:10:09;;;;;;;6.35;2.10;;;;;;;;;;5052458;28;20575;-84
2022/05/20 04:12:40;;;;;;;9.85;3.00;;;;;;;;;;5038075;28;20049;-84
2022/05/20 04:15:12;;;;;;;4.25;2.83;;;;;;;;;;5068394;28;20033;-82
2022/05/20 04:17:39;;;;;;;5.07;2.40;;;;;;;;;;5053550;28;20040;-83
2022/05/20 04:20:06;;;;;;;8.10;3.00;;;;;;;;;;5052158;28;20025;-83
2022/05/20 04:22:35;;;;;;;3.95;2.53;;;;;;;;;;5055842;28;20028;-84
2022/05/20 04:25:01;;;;;;;5.57;2.20;;;;;;;;;;5052871;28;20056;-82
2022/05/20 04:27:30;;;;;;;4.65;2.00;;;;;;;;;;5057055;28;20103;-84
2022/05/20 04:29:56;;;;;;;7.72;2.15;;;;;;;;;;5072277;28;20271;-84
2022/05/20 04:32:22;;;;;;;9.13;2.97;;;;;;;;;;5053947;28;20043;-84
2022/05/20 04:34:48;;;;;;;2.83;2.53;;;;;;;;;;5053909;28;20028;-83
2022/05/20 04:37:14;;;;;;;6.72;3.15;;;;;;;;;;5053625;28;20048;-84
2022/05/20 04:39:39;;;;;;;3.13;2.38;;;;;;;;;;5073177;28;20024;-84
2022/05/20 04:47:34;;;;;;;6.63;2.95;;;;;;;;;;5055533;28;20036;-82
2022/05/20 04:49:59;;;;;;;4.22;3.25;;;;;;;;;;5054668;28;20032;-85
2022/05/20 04:52:25;;;;;;;3.72;3.10;;;;;;;;;;5055435;28;20108;-83
2022/05/20 04:54:52;;;;;;;4.78;2.63;;;;;;;;;;5056197;28;20032;-83
2022/05/20 04:57:29;;;;;;;7.65;2.92;;;;;;;;;;5057257;28;20025;-84
2022/05/20 05:00:07;;;;;;;6.10;2.70;;;;;;;;;;5057907;28;20081;-82
2022/05/20 05:02:34;;;;;;;3.45;2.33;;;;;;;;;;5074179;28;20048;-81
2022/05/20 05:05:00;;;;;;;5.00;3.03;;;;;;;;;;5057059;28;20025;-84
2022/05/20 05:07:25;;;;;;;5.57;3.20;;;;;;;;;;5075950;28;20036;-82
2022/05/20 05:09:53;;;;;;;5.25;3.30;;;;;;;;;;5062945;28;20039;-82
2022/05/20 05:12:20;;;;;;;5.10;2.88;;;;;;;;;;5051331;28;20033;-80
2022/05/20 05:14:48;;;;;;;7.03;3.40;;;;;;;;;;5036003;28;20037;-82
2022/05/20 05:17:17;;;;;;;7.35;3.35;;;;;;;;;;5053093;28;20036;-83
2022/05/20 05:19:44;;;;;;;3.75;2.78;;;;;;;;;;5057243;28;20052;-84
2022/05/20 05:22:11;;;;;;;8.48;3.83;;;;;;;;;;5056560;28;20056;-80
2022/05/20 05:24:37;;;;;;;7.90;4.30;;;;;;;;;;5054759;28;20021;-83
2022/05/20 05:27:05;;;;;;;5.30;3.10;;;;;;;;;;5056152;28;20028;-83
2022/05/20 05:29:33;;;;;;;11.20;3.80;;;;;;;;;;5043561;28;20102;-86
2022/05/20 05:31:59;;;;;;;4.68;3.30;;;;;;;;;;5058248;28;20078;-86
2022/05/20 05:34:24;;;;;;;7.97;3.15;;;;;;;;;;5058643;28;20319;-86
2022/05/20 05:36:50;;;;;;;6.22;2.92;;;;;;;;;;5058441;28;20029;-81
2022/05/20 05:39:15;;;;;;;5.63;2.60;;;;;;;;;;5055769;28;20029;-79
2022/05/20 05:41:41;;;;;;;9.30;3.50;;;;;;;;;;5051328;28;20431;-77
2022/05/20 05:44:07;;;;;;;5.97;2.72;;;;;;;;;;5037765;28;20039;-78
2022/05/20 05:46:32;;;;;;;15.98;4.80;;;;;;;;;;5047340;28;20029;-78
2022/05/20 05:48:58;;;;;;;15.85;4.05;;;;;;;;;;5050312;28;20404;-78
2022/05/20 05:51:25;;;;;;;6.38;2.58;;;;;;;;;;5055917;28;20044;-77
2022/05/20 05:53:52;;;;;;;4.32;2.25;;;;;;;;;;5031801;28;20090;-78
2022/05/20 05:56:18;;;;;;;5.55;3.40;;;;;;;;;;5033702;28;20035;-76
2022/05/20 05:58:44;;;;;;;3.90;2.95;;;;;;;;;;5052018;28;20124;-78
2022/05/20 06:01:10;;;;;;;7.10;3.13;;;;;;;;;;5049796;28;20459;-77
2022/05/20 06:03:36;;;;;;;7.18;2.95;;;;;;;;;;5031254;28;20330;-77
2022/05/20 06:06:01;;;;;;;9.73;2.90;;;;;;;;;;5049256;28;20040;-78
2022/05/20 06:08:27;;;;;;;6.68;3.10;;;;;;;;;;5033613;28;20043;-77
2022/05/20 06:10:53;;;;;;;5.10;3.55;;;;;;;;;;5050860;28;20036;-76
2022/05/20 06:13:29;;;;;;;4.60;2.92;;;;;;;;;;5049000;28;20028;-76
2022/05/20 06:15:55;;;;;;;6.18;2.60;;;;;;;;;;5042556;28;20876;-79
2022/05/20 06:18:21;;;;;;;5.35;2.50;;;;;;;;;;5031956;28;20036;-78
2022/05/20 06:20:47;;;;;;;9.50;2.85;;;;;;;;;;5049513;28;20037;-77
2022/05/20 06:23:13;;;;;;;4.55;2.38;;;;;;;;;;5033185;28;20079;-76
2022/05/20 06:25:38;;;;;;;3.47;2.20;;;;;;;;;;5028968;28;20125;-79
2022/05/20 06:28:07;;;;;;;6.95;2.65;;;;;;;;;;5039161;28;20031;-77
2022/05/20 06:30:33;;;;;;;3.88;2.58;;;;;;;;;;5050208;28;20037;-78
2022/05/20 06:33:01;;;;;;;5.18;2.50;;;;;;;;;;5049172;28;20040;-80
2022/05/20 06:40:55;;;;;;;7.78;3.55;;;;;;;;;;5049724;28;20055;-77
2022/05/20 06:43:21;;;;;;;10.05;2.92;;;;;;;;;;5050693;28;20048;-76
2022/05/20 06:45:55;;;;;;;5.75;2.67;;;;;;;;;;5034668;28;20037;-77
2022/05/20 06:48:21;;;;;;;4.47;2.45;;;;;;;;;;5050568;28;20028;-77
2022/05/20 06:50:47;;;;;;;10.07;2.42;;;;;;;;;;5047741;28;20058;-76
2022/05/20 06:53:14;;;;;;;8.23;2.83;;;;;;;;;;5049856;28;20480;-75
2022/05/20 06:55:40;;;;;;;5.05;2.58;;;;;;;;;;5048562;28;20445;-77
2022/05/20 06:58:06;;;;;;;3.75;2.70;;;;;;;;;;5049151;28;20473;-76
2022/05/20 07:00:32;;;;;;;2.85;2.10;;;;;;;;;;5051386;28;20051;-75
2022/05/20 07:02:57;;;;;;;3.55;2.10;;;;;;;;;;5046988;28;20403;-75
2022/05/20 07:05:23;;;;;;;4.45;2.25;;;;;;;;;;5048012;28;20066;-80
2022/05/20 07:07:49;;;;;;;3.88;1.92;;;;;;;;;;5050260;28;20453;-79
2022/05/20 07:10:16;;;;;;;5.60;2.20;;;;;;;;;;5031957;28;20060;-77
2022/05/20 07:12:42;;;;;;;6.50;1.90;;;;;;;;;;5046950;28;20017;-78
2022/05/20 07:15:08;;;;;;;3.53;1.88;;;;;;;;;;5049130;28;20051;-75
2022/05/20 07:17:38;;;;;;;2.42;1.55;;;;;;;;;;5039518;28;20082;-76
2022/05/20 07:20:05;;;;;;;2.85;1.80;;;;;;;;;;5042631;28;20032;-78
2022/05/20 07:22:31;;;;;;;4.30;1.55;;;;;;;;;;5031556;28;20148;-77
2022/05/20 07:24:57;;;;;;;3.78;1.88;;;;;;;;;;5031418;28;20115;-77
2022/05/20 07:27:25;;;;;;;5.72;2.25;;;;;;;;;;5058517;28;20380;-79
2022/05/20 07:29:53;;;;;;;6.55;2.45;;;;;;;;;;5046770;28;20387;-81
2022/05/20 07:32:19;;;;;;;9.80;6.28;;;;;;;;;;5048593;28;20464;-81
2022/05/20 07:34:44;;;;;;;7.03;2.67;;;;;;;;;;5047761;28;20128;-81
2022/05/20 07:37:10;;;;;;;5.15;2.22;;;;;;;;;;5030874;28;20021;-80
2022/05/20 07:39:35;;;;;;;3.25;2.45;;;;;;;;;;5048388;28;20031;-81
2022/05/20 07:42:01;;;;;;;3.50;2.15;;;;;;;;;;5045232;28;20071;-79
2022/05/20 07:44:28;;;;;;;4.00;2.08;;;;;;;;;;5039430;28;20048;-75
2022/05/20 07:46:53;;;;;;;4.38;1.80;;;;;;;;;;5043093;28;20029;-82
2022/05/20 07:49:19;;;;;;;2.92;1.95;;;;;;;;;;5050394;28;20087;-80
2022/05/20 07:51:51;;;;;;;3.58;2.17;;;;;;;;;;5046487;28;20025;-79
2022/05/20 07:54:23;;;;;;;3.38;2.03;;;;;;;;;;5029000;28;20034;-79
2022/05/20 07:56:59;;;;;;;3.33;1.88;;;;;;;;;;5046517;28;20056;-80
2022/05/20 07:59:30;;;;;;;5.13;2.65;;;;;;;;;;5048529;28;20638;-82
2022/05/20 08:01:56;;;;;;;4.18;2.17;;;;;;;;;;5024243;28;20691;-77
2022/05/20 08:07:10;;;;;;;6.43;2.30;;;;;;;;;;5043655;28;20657;-78
2022/05/20 08:09:36;;;;;;;2.30;2.00;;;;;;;;;;5033304;28;20040;-77
2022/05/20 08:12:03;;;;;;;4.38;2.28;;;;;;;;;;5026120;28;20028;-77
2022/05/20 08:14:28;;;;;;;5.68;2.40;;;;;;;;;;5045772;28;20099;-77
2022/05/20 08:16:59;;;;;;;3.08;2.00;;;;;;;;;;5037815;28;20038;-80
2022/05/20 08:19:25;;;;;;;5.07;2.42;;;;;;;;;;5049370;28;20465;-76
2022/05/20 08:21:51;;;;;;;6.97;2.40;;;;;;;;;;5033141;28;20063;-78
2022/05/20 08:24:18;;;;;;;3.70;2.28;;;;;;;;;;5049756;28;20033;-80
2022/05/20 08:26:43;;;;;;;4.55;2.03;;;;;;;;;;5034040;28;20469;-75
2022/05/20 08:29:12;;;;;;;6.50;2.78;;;;;;;;;;5050469;28;20074;-76
2022/05/20 08:31:41;;;;;;;3.35;2.03;;;;;;;;;;5028746;28;20068;-77
2022/05/20 08:34:07;;;;;;;3.22;2.20;;;;;;;;;;5032759;28;20041;-80
2022/05/20 08:36:35;;;;;;;4.50;2.08;;;;;;;;;;5049845;28;20047;-78
2022/05/20 08:39:01;;;;;;;5.75;2.53;;;;;;;;;;5047869;28;20024;-76
2022/05/20 08:41:34;;;;;;;3.80;2.15;;;;;;;;;;5049804;28;20408;-76
2022/05/20 08:44:01;;;;;;;4.28;2.00;;;;;;;;;;5047574;28;20044;-76
2022/05/20 08:46:28;;;;;;;4.32;2.00;;;;;;;;;;5049346;28;20115;-76
2022/05/20 08:48:56;;;;;;;2.97;1.88;;;;;;;;;;5050925;28;20451;-76
2022/05/20 08:51:24;;;;;;;3.67;2.28;;;;;;;;;;5047952;28;20381;-76
2022/05/20 08:53:51;;;;;;;3.20;2.40;;;;;;;;;;5046057;28;20041;-76
2022/05/20 08:56:25;;;;;;;3.22;2.10;;;;;;;;;;5039166;28;20128;-78
2022/05/20 08:59:00;;;;;;;8.32;2.00;;;;;;;;;;5047574;28;20114;-77
2022/05/20 09:01:32;;;;;;;1.88;1.63;;;;;;;;;;5050630;28;20035;-77
2022/05/20 09:03:58;;;;;;;6.65;2.60;;;;;;;;;;5046830;28;20152;-77
2022/05/20 09:06:26;;;;;;;3.45;1.95;;;;;;;;;;5048435;28;20143;-77
2022/05/20 09:09:21;;;;;;;2.30;2.10;;;;;;;;;;5048227;28;20029;-77
2022/05/20 09:11:54;;;;;;;3.05;2.10;;;;;;;;;;5023224;28;20041;-78
2022/05/20 09:17:18;;;;;;;4.35;1.98;;;;;;;;;;5049856;28;20522;-77
2022/05/20 09:20:06;;;;;;;2.58;2.17;;;;;;;;;;5031194;28;20403;-78
2022/05/20 09:22:37;;;;;;;2.53;1.83;;;;;;;;;;5042152;28;20033;-77
2022/05/20 09:25:27;;;;;;;2.92;2.22;;;;;;;;;;5044817;28;20059;-77
2022/05/20 09:28:33;;;;;;;6.55;5.20;;;;;;;;;;5045390;28;20033;-78
2022/05/20 09:31:40;;;;;;;4.20;2.25;;;;;;;;;;5049518;28;20537;-75
2022/05/20 09:34:12;;;;;;;3.60;1.90;;;;;;;;;;5059486;28;20098;-80
2022/05/20 09:36:42;;;;;;;4.78;2.03;;;;;;;;;;5039278;28;20037;-82
2022/05/20 09:39:21;;;;;;;2.88;1.88;;;;;;;;;;5047444;28;20123;-78
2022/05/20 09:41:55;;;;;;;2.67;2.10;;;;;;;;;;5049326;28;20139;-78
2022/05/20 09:44:24;;;;;;;3.80;2.20;;;;;;;;;;5055987;28;20025;-81
2022/05/20 09:47:07;;;;;;;4.13;2.35;;;;;;;;;;5038275;28;20143;-79
2022/05/20 09:49:53;;;;;;;2.35;1.75;;;;;;;;;;5048360;28;20039;-78
2022/05/20 09:52:40;;;;;;;3.40;2.20;;;;;;;;;;5046961;28;20048;-76
2022/05/20 09:55:13;;;;;;;3.22;2.85;;;;;;;;;;5045872;28;20043;-76
2022/05/20 09:57:46;;;;;;;8.07;2.40;;;;;;;;;;5046933;28;20029;-77
2022/05/20 10:00:28;;;;;;;5.18;2.47;;;;;;;;;;5045367;28;20026;-77
2022/05/20 10:03:03;;;;;;;3.80;2.47;;;;;;;;;;5044912;28;20037;-78
2022/05/20 10:05:41;;;;;;;2.92;2.63;;;;;;;;;;5031972;28;20513;-78
2022/05/20 10:08:29;;;;;;;2.55;2.30;;;;;;;;;;5044004;28;20017;-77
2022/05/20 10:11:27;;;;;;;2.50;2.30;;;;;;;;;;5042836;28;20067;-79
2022/05/20 10:14:01;;;;;;;2.70;2.50;;;;;;;;;;5053569;28;20029;-79
2022/05/20 10:16:40;;;;;;;6.78;2.72;;;;;;;;;;5047611;28;20037;-79
2022/05/20 10:19:35;;;;;;;5.85;2.63;;;;;;;;;;5048132;28;20033;-77
2022/05/20 10:22:14;;;;;;;5.72;3.13;;;;;;;;;;5050483;28;20028;-78
2022/05/20 10:25:17;;;;;;;3.30;2.47;;;;;;;;;;5048022;28;20029;-78
2022/05/20 10:27:54;;;;;;;5.45;3.10;;;;;;;;;;5002289;28;20067;-76
2022/05/20 10:33:14;;;;;;;4.13;3.15;;;;;;;;;;5042108;28;20044;-76
2022/05/20 10:36:01;;;;;;;3.78;3.30;;;;;;;;;;5040352;28;20067;-78
2022/05/20 10:38:49;;;;;;;6.38;3.55;;;;;;;;;;5049151;28;20067;-77
2022/05/20 10:41:26;;;;;;;4.00;2.63;;;;;;;;;;5054575;28;20039;-78
2022/05/20 10:51:14;;;;;;;5.63;2.85;;;;;;;;;;5024216;28;20040;-78
2022/05/20 10:53:39;;;;;;;3.53;2.78;;;;;;;;;;4999239;28;20068;-79
2022/05/20 10:56:44;;;;;;;3.72;2.65;;;;;;;;;;5032983;28;20061;-78
2022/05/20 10:59:48;;;;;;;4.05;2.95;;;;;;;;;;5024375;28;20155;-76
2022/05/20 11:02:38;;;;;;;4.53;3.08;;;;;;;;;;5028093;28;20041;-77
2022/05/20 11:05:20;;;;;;;4.43;2.87;;;;;;;;;;5028956;28;20040;-77
2022/05/20 11:08:10;;;;;;;7.80;3.33;;;;;;;;;;5032322;28;20282;-79
2022/05/20 11:10:43;;;;;;;5.37;3.30;;;;;;;;;;5027570;28;20088;-77
2022/05/20 11:13:15;;;;;;;4.63;2.95;;;;;;;;;;5026570;28;20357;-77
2022/05/20 11:16:19;;;;;;;4.70;2.90;;;;;;;;;;5011671;28;20034;-77
2022/05/20 11:19:31;;;;;;;3.50;3.20;;;;;;;;;;5021596;28;20041;-78
2022/05/20 11:22:19;;;;;;;5.05;2.95;;;;;;;;;;5021869;28;20094;-78
2022/05/20 11:25:11;;;;;;;4.18;2.58;;;;;;;;;;5025813;28;20025;-81
2022/05/20 11:27:45;;;;;;;10.07;3.33;;;;;;;;;;5021552;28;20025;-77
2022/05/20 11:30:23;;;;;;;5.50;3.33;;;;;;;;;;5017037;28;20026;-79
2022/05/20 11:33:10;;;;;;;4.18;2.90;;;;;;;;;;5018098;28;20033;-79
2022/05/20 11:35:58;;;;;;;5.38;2.90;;;;;;;;;;5022957;28;20025;-78
2022/05/20 11:38:48;;;;;;;4.43;3.08;;;;;;;;;;5017041;28;20067;-79
2022/05/20 11:41:31;;;;;;;8.27;3.42;;;;;;;;;;5009462;28;20030;-79
2022/05/20 11:44:26;;;;;;;5.05;2.70;;;;;;;;;;5027345;28;20957;-80
2022/05/20 11:47:01;;;;;;;3.70;2.63;;;;;;;;;;5031865;28;20116;-78
2022/05/20 11:49:57;;;;;;;4.30;3.05;;;;;;;;;;5026912;28;20025;-78
2022/05/20 11:52:57;;;;;;;4.22;3.22;;;;;;;;;;5031150;28;20400;-81
2022/05/20 11:55:55;;;;;;;4.18;2.85;;;;;;;;;;5033983;28;20029;-78
2022/05/20 11:58:46;;;;;;;5.20;2.55;;;;;;;;;;5036168;28;20048;-80
2022/05/20 12:01:13;;;;;;;29.60;5.47;;;;;;;;;;5031333;28;20120;-80
2022/05/20 12:06:30;;;;;;;6.22;3.10;;;;;;;;;;5032125;28;20055;-81
2022/05/20 12:09:01;;;;;;;4.20;2.75;;;;;;;;;;5034191;28;20397;-80
2022/05/20 12:11:35;;;;;;;5.07;2.85;;;;;;;;;;5027775;28;20040;-79
2022/05/20 12:14:01;;;;;;;4.50;2.90;;;;;;;;;;5016269;28;20701;-82
2022/05/20 12:16:27;;;;;;;3.25;2.92;;;;;;;;;;5016968;28;20092;-82
2022/05/20 12:24:34;;;;;;;6.50;3.05;;;;;;;;;;5026981;28;20125;-81
2022/05/20 12:27:00;;;;;;;7.53;3.22;;;;;;;;;;5032424;28;20037;-80
2022/05/20 12:29:37;;;;;;;6.07;3.20;;;;;;;;;;5028852;28;20117;-82
2022/05/20 12:32:18;;;;;;;3.33;3.03;;;;;;;;;;5033237;28;20032;-80
2022/05/20 12:35:03;;;;;;;4.22;3.08;;;;;;;;;;5028743;28;20029;-80
2022/05/20 12:37:40;;;;;;;7.13;3.03;;;;;;;;;;5030248;28;20104;-81
2022/05/20 12:40:26;;;;;;;5.78;2.70;;;;;;;;;;5033203;28;20013;-79
2022/05/20 12:43:03;;;;;;;6.63;3.20;;;;;;;;;;5040278;28;20059;-80
2022/05/20 12:45:38;;;;;;;3.03;2.70;;;;;;;;;;5047512;28;20239;-79
2022/05/20 12:48:04;;;;;;;7.40;3.38;;;;;;;;;;5053458;28;20037;-78
2022/05/20 12:50:31;;;;;;;6.60;3.13;;;;;;;;;;5052597;28;20106;-80
2022/05/20 12:53:07;;;;;;;6.13;2.80;;;;;;;;;;5050056;28;20032;-76
2022/05/20 12:55:45;;;;;;;4.80;2.90;;;;;;;;;;5032258;28;20033;-77
2022/05/20 12:58:15;;;;;;;5.20;2.65;;;;;;;;;;5048973;28;20072;-77
2022/05/20 13:00:50;;;;;;;7.55;3.13;;;;;;;;;;5048829;28;20027;-78
2022/05/20 13:03:27;;;;;;;7.82;2.25;;;;;;;;;;5060679;28;20064;-78
2022/05/20 13:05:58;;;;;;;4.25;2.70;;;;;;;;;;5052633;28;20034;-78
2022/05/20 13:08:31;;;;;;;5.57;2.78;;;;;;;;;;5034380;28;20035;-77
2022/05/20 13:11:07;;;;;;;5.32;2.70;;;;;;;;;;5039474;28;20037;-78
2022/05/20 13:13:34;;;;;;;3.83;2.53;;;;;;;;;;5050054;28;20028;-77
2022/05/20 13:16:02;;;;;;;11.90;3.28;;;;;;;;;;5050568;28;20025;-76
2022/05/20 13:18:43;;;;;;;5.13;2.35;;;;;;;;;;5051678;28;20025;-79
2022/05/20 13:21:16;;;;;;;3.88;2.40;;;;;;;;;;5043404;28;20417;-79
2022/05/20 13:23:45;;;;;;;4.35;2.50;;;;;;;;;;5045429;28;20120;-81
2022/05/20 13:26:28;;;;;;;4.40;2.05;;;;;;;;;;5047703;28;20033;-78
2022/05/20 13:29:12;;;;;;;4.15;2.50;;;;;;;;;;5049290;28;20397;-79
2022/05/20 13:31:38;;;;;;;4.07;2.33;;;;;;;;;;5049694;28;20296;-78
2022/05/20 13:34:07;;;;;;;3.13;2.25;;;;;;;;;;5052514;28;20033;-78
2022/05/20 13:36:53;;;;;;;3.17;2.42;;;;;;;;;;5050871;28;20020;-80
2022/05/20 13:39:22;;;;;;;5.10;2.10;;;;;;;;;;5041162;28;20117;-79
2022/05/20 13:41:50;;;;;;;2.50;2.13;;;;;;;;;;5043705;28;20567;-77
2022/05/20 13:44:16;;;;;;;6.60;2.53;;;;;;;;;;5017623;28;20289;-81
2022/05/20 13:49:32;;;;;;;4.47;2.22;;;;;;;;;;5045202;28;20044;-78
2022/05/20 13:52:01;;;;;;;2.28;2.00;;;;;;;;;;5051879;28;20056;-78
2022/05/20 13:54:35;;;;;;;8.18;2.40;;;;;;;;;;5049413;28;20039;-78
2022/05/20 13:57:03;;;;;;;3.58;2.20;;;;;;;;;;5048899;28;20370;-78
2022/05/20 13:59:30;;;;;;;3.63;3.28;;;;;;;;;;5039852;28;20110;-76
2022/05/20 14:02:13;;;;;;;8.30;3.33;;;;;;;;;;5049912;28;20024;-76
2022/05/20 14:04:55;;;;;;;5.68;2.85;;;;;;;;;;5051306;28;20028;-77
2022/05/20 14:07:42;;;;;;;5.70;2.30;;;;;;;;;;5049461;28;20037;-78
2022/05/20 14:10:17;;;;;;;3.70;2.22;;;;;;;;;;5029798;28;20025;-80
2022/05/20 14:12:49;;;;;;;6.45;2.78;;;;;;;;;;5050748;28;20016;-76
2022/05/20 14:15:44;;;;;;;4.80;2.70;;;;;;;;;;5050634;28;20432;-79
2022/05/20 14:18:24;;;;;;;3.05;2.63;;;;;;;;;;5041997;28;20062;-81
2022/05/20 14:21:01;;;;;;;3.28;2.47;;;;;;;;;;5040801;28;20097;-80
2022/05/20 14:23:31;;;;;;;5.13;2.70;;;;;;;;;;5045867;28;20025;-79
2022/05/20 14:26:01;;;;;;;3.20;2.60;;;;;;;;;;5040905;28;20082;-79
2022/05/20 14:28:59;;;;;;;3.90;2.80;;;;;;;;;;5051224;28;20041;-80
2022/05/20 14:31:34;;;;;;;4.13;2.75;;;;;;;;;;4972840;28;20039;-80
2022/05/20 14:34:06;;;;;;;3.10;2.40;;;;;;;;;;4989088;28;20168;-80
2022/05/20 14:36:34;;;;;;;4.13;2.60;;;;;;;;;;4988229;28;20026;-78
2022/05/20 14:39:00;;;;;;;2.97;2.67;;;;;;;;;;4989648;28;20045;-81
2022/05/20 14:41:29;;;;;;;7.90;2.75;;;;;;;;;;5025830;28;20037;-79
2022/05/20 14:43:56;;;;;;;6.10;2.50;;;;;;;;;;5033372;28;20097;-78
2022/05/20 14:49:32;;;;;;;5.15;2.65;;;;;;;;;;5049565;28;20052;-80
2022/05/20 14:51:58;;;;;;;10.02;3.25;;;;;;;;;;5051255;28;20033;-81
2022/05/20 14:54:45;;;;;;;4.75;2.70;;;;;;;;;;5032040;28;20508;-81
2022/05/20 14:57:40;;;;;;;5.35;2.75;;;;;;;;;;5051223;28;20043;-80
2022/05/20 15:00:14;;;;;;;3.03;2.67;;;;;;;;;;5049920;28;20460;-78
2022/05/20 15:02:40;;;;;;;4.75;3.58;;;;;;;;;;5032428;28;20465;-79
2022/05/20 15:05:08;;;;;;;11.30;3.20;;;;;;;;;;5049658;28;20463;-78
2022/05/20 15:07:36;;;;;;;4.07;3.13;;;;;;;;;;5049965;28;20112;-80
2022/05/20 15:10:01;;;;;;;5.38;2.80;;;;;;;;;;5049167;28;20056;-80
2022/05/20 15:12:27;;;;;;;8.90;3.15;;;;;;;;;;5045545;28;20029;-80
2022/05/20 15:14:54;;;;;;;3.67;3.20;;;;;;;;;;5032444;28;20025;-80
2022/05/20 15:17:20;;;;;;;4.32;2.92;;;;;;;;;;5031794;28;20046;-76
2022/05/20 15:19:47;;;;;;;5.63;3.10;;;;;;;;;;5048075;28;20499;-78
2022/05/20 15:22:15;;;;;;;4.57;3.50;;;;;;;;;;5032491;28;20206;-79
2022/05/20 15:24:46;;;;;;;9.15;3.13;;;;;;;;;;5049042;28;20469;-78
2022/05/20 15:27:24;;;;;;;3.40;3.10;;;;;;;;;;5048428;28;20024;-78
2022/05/20 15:29:51;;;;;;;4.90;2.88;;;;;;;;;;5049267;28;20084;-79
2022/05/20 15:35:01;;;;;;;3.70;2.65;;;;;;;;;;5049591;28;20048;-77
2022/05/20 15:37:40;;;;;;;4.15;2.38;;;;;;;;;;5049713;28;20385;-79
2022/05/20 15:40:09;;;;;;;6.97;2.90;;;;;;;;;;5049775;28;20373;-81
2022/05/20 15:42:36;;;;;;;4.95;3.35;;;;;;;;;;5047480;28;20069;-80
2022/05/20 15:45:01;;;;;;;3.92;3.17;;;;;;;;;;5026164;28;20090;-79
2022/05/20 15:47:27;;;;;;;4.95;2.92;;;;;;;;;;5051659;28;20517;-80
2022/05/20 15:49:53;;;;;;;5.55;3.58;;;;;;;;;;5050840;28;20073;-80
2022/05/20 15:52:26;;;;;;;6.72;3.00;;;;;;;;;;5050880;28;20025;-81
2022/05/20 15:54:58;;;;;;;6.55;5.43;;;;;;;;;;5050021;28;20059;-81
2022/05/20 15:57:25;;;;;;;6.70;4.40;;;;;;;;;;5051337;28;20033;-82
2022/05/20 15:59:52;;;;;;;6.57;5.55;;;;;;;;;;5051559;28;20020;-80
2022/05/20 16:02:20;;;;;;;7.85;5.13;;;;;;;;;;5050773;28;20025;-79